sensor_id;sensor_type;location;lat;lon;timestamp;pressure;altitude;pressure_sealevel;temperature;humidity
59825;BME280;45703;50.898;6.054;2024-03-08T00:00:26;100148.03;;;3.20;100.00
59825;BME280;45703;50.898;6.054;2024-03-08T00:02:52;100155.00;;;3.13;100.00
59825;BME280;45703;50.898;6.054;2024-03-08T00:05:17;100145.31;;;3.05;100.00
59825;BME280;45703;50.898;6.054;2024-03-08T00:07:43;100145.53;;;2.96;100.00
59825;BME280;45703;50.898;6.054;2024-03-08T00:10:11;100133.91;;;2.90;100.00
59825;BME280;45703;50.898;6.054;2024-03-08T00:12:41;100130.47;;;2.82;100.00
59825;BME280;45703;50.898;6.054;2024-03-08T00:15:10;100136.41;;;2.84;100.00
59825;BME280;45703;50.898;6.054;2024-03-08T00:17:36;100129.34;;;2.77;100.00
59825;BME280;45703;50.898;6.054;2024-03-08T00:20:02;100124.91;;;2.77;100.00
59825;BME280;45703;50.898;6.054;2024-03-08T00:22:36;100122.41;;;2.83;100.00
59825;BME280;45703;50.898;6.054;2024-03-08T00:25:06;100124.56;;;2.80;100.00
59825;BME280;45703;50.898;6.054;2024-03-08T00:27:35;100128.69;;;2.83;100.00
59825;BME280;45703;50.898;6.054;2024-03-08T00:30:01;100117.16;;;2.83;100.00
59825;BME280;45703;50.898;6.054;2024-03-08T00:32:27;100119.78;;;2.83;100.00
59825;BME280;45703;50.898;6.054;2024-03-08T00:34:57;100122.44;;;2.76;100.00
59825;BME280;45703;50.898;6.054;2024-03-08T00:37:22;100118.22;;;2.67;100.00
59825;BME280;45703;50.898;6.054;2024-03-08T00:39:48;100115.47;;;2.60;100.00
59825;BME280;45703;50.898;6.054;2024-03-08T00:42:15;100112.94;;;2.67;100.00
59825;BME280;45703;50.898;6.054;2024-03-08T00:44:41;100105.03;;;2.67;100.00
59825;BME280;45703;50.898;6.054;2024-03-08T00:47:06;100105.75;;;2.61;100.00
59825;BME280;45703;50.898;6.054;2024-03-08T00:49:32;100110.88;;;2.54;100.00
59825;BME280;45703;50.898;6.054;2024-03-08T00:51:57;100096.84;;;2.62;100.00
59825;BME280;45703;50.898;6.054;2024-03-08T00:54:22;100098.81;;;2.60;100.00
59825;BME280;45703;50.898;6.054;2024-03-08T00:56:48;100105.56;;;2.62;100.00
59825;BME280;45703;50.898;6.054;2024-03-08T00:59:13;100100.66;;;2.59;100.00
59825;BME280;45703;50.898;6.054;2024-03-08T01:01:40;100095.53;;;2.58;100.00
59825;BME280;45703;50.898;6.054;2024-03-08T01:04:05;100091.47;;;2.55;100.00
59825;BME280;45703;50.898;6.054;2024-03-08T01:06:31;100090.91;;;2.60;100.00
59825;BME280;45703;50.898;6.054;2024-03-08T01:08:57;100092.25;;;2.56;100.00
59825;BME280;45703;50.898;6.054;2024-03-08T01:11:22;100084.38;;;2.56;100.00
59825;BME280;45703;50.898;6.054;2024-03-08T01:13:47;100085.19;;;2.56;100.00
59825;BME280;45703;50.898;6.054;2024-03-08T01:16:13;100088.63;;;2.57;100.00
59825;BME280;45703;50.898;6.054;2024-03-08T01:18:38;100082.03;;;2.61;100.00
59825;BME280;45703;50.898;6.054;2024-03-08T01:21:04;100083.84;;;2.60;100.00
59825;BME280;45703;50.898;6.054;2024-03-08T01:23:29;100087.84;;;2.56;100.00
59825;BME280;45703;50.898;6.054;2024-03-08T01:25:55;100083.06;;;2.52;100.00
59825;BME280;45703;50.898;6.054;2024-03-08T01:28:24;100080.09;;;2.55;100.00
59825;BME280;45703;50.898;6.054;2024-03-08T01:30:50;100076.81;;;2.53;100.00
59825;BME280;45703;50.898;6.054;2024-03-08T01:33:23;100072.88;;;2.49;100.00
59825;BME280;45703;50.898;6.054;2024-03-08T01:35:51;100074.88;;;2.47;100.00
59825;BME280;45703;50.898;6.054;2024-03-08T01:38:16;100083.88;;;2.52;100.00
59825;BME280;45703;50.898;6.054;2024-03-08T01:40:42;100069.06;;;2.51;100.00
59825;BME280;45703;50.898;6.054;2024-03-08T01:43:27;100073.53;;;2.51;100.00
59825;BME280;45703;50.898;6.054;2024-03-08T01:45:58;100068.41;;;2.49;100.00
59825;BME280;45703;50.898;6.054;2024-03-08T01:48:28;100072.88;;;2.49;100.00
59825;BME280;45703;50.898;6.054;2024-03-08T01:50:55;100063.19;;;2.41;100.00
59825;BME280;45703;50.898;6.054;2024-03-08T01:53:22;100056.00;;;2.35;100.00
59825;BME280;45703;50.898;6.054;2024-03-08T01:55:48;100059.16;;;2.31;100.00
59825;BME280;45703;50.898;6.054;2024-03-08T01:58:14;100055.41;;;2.25;100.00
59825;BME280;45703;50.898;6.054;2024-03-08T02:00:46;100052.13;;;2.23;100.00
59825;BME280;45703;50.898;6.054;2024-03-08T02:03:17;100044.72;;;2.19;100.00
59825;BME280;45703;50.898;6.054;2024-03-08T02:05:43;100046.41;;;2.12;100.00
59825;BME280;45703;50.898;6.054;2024-03-08T02:08:09;100044.47;;;2.06;100.00
59825;BME280;45703;50.898;6.054;2024-03-08T02:10:43;100038.56;;;2.04;100.00
59825;BME280;45703;50.898;6.054;2024-03-08T02:13:09;100044.31;;;1.99;100.00
59825;BME280;45703;50.898;6.054;2024-03-08T02:15:54;100035.97;;;1.96;100.00
59825;BME280;45703;50.898;6.054;2024-03-08T02:18:20;100034.47;;;1.93;100.00
59825;BME280;45703;50.898;6.054;2024-03-08T02:20:59;100033.38;;;1.88;100.00
59825;BME280;45703;50.898;6.054;2024-03-08T02:23:25;100029.78;;;1.81;100.00
59825;BME280;45703;50.898;6.054;2024-03-08T02:25:52;100019.25;;;1.81;100.00
59825;BME280;45703;50.898;6.054;2024-03-08T02:28:18;100025.81;;;1.85;100.00
59825;BME280;45703;50.898;6.054;2024-03-08T02:30:44;100025.66;;;1.78;100.00
59825;BME280;45703;50.898;6.054;2024-03-08T02:33:14;100024.88;;;1.70;100.00
59825;BME280;45703;50.898;6.054;2024-03-08T02:35:42;100008.13;;;1.63;100.00
59825;BME280;45703;50.898;6.054;2024-03-08T02:38:11;100013.22;;;1.64;100.00
59825;BME280;45703;50.898;6.054;2024-03-08T02:40:37;100011.94;;;1.60;100.00
59825;BME280;45703;50.898;6.054;2024-03-08T02:43:02;100012.63;;;1.54;100.00
59825;BME280;45703;50.898;6.054;2024-03-08T02:45:30;100005.22;;;1.50;100.00
59825;BME280;45703;50.898;6.054;2024-03-08T02:47:55;100009.19;;;1.46;100.00
59825;BME280;45703;50.898;6.054;2024-03-08T02:50:21;100004.25;;;1.43;100.00
59825;BME280;45703;50.898;6.054;2024-03-08T02:52:48;100007.38;;;1.38;100.00
59825;BME280;45703;50.898;6.054;2024-03-08T02:55:13;100011.19;;;1.36;100.00
59825;BME280;45703;50.898;6.054;2024-03-08T02:57:42;100000.00;;;1.34;100.00
59825;BME280;45703;50.898;6.054;2024-03-08T03:00:09;99995.75;;;1.25;100.00
59825;BME280;45703;50.898;6.054;2024-03-08T03:02:35;100001.34;;;1.22;100.00
59825;BME280;45703;50.898;6.054;2024-03-08T03:05:00;100004.94;;;1.21;100.00
59825;BME280;45703;50.898;6.054;2024-03-08T03:07:30;99997.25;;;1.20;100.00
59825;BME280;45703;50.898;6.054;2024-03-08T03:09:56;99995.28;;;1.14;100.00
59825;BME280;45703;50.898;6.054;2024-03-08T03:12:21;99992.66;;;1.14;100.00
59825;BME280;45703;50.898;6.054;2024-03-08T03:14:47;99993.47;;;1.14;100.00
59825;BME280;45703;50.898;6.054;2024-03-08T03:17:12;99986.91;;;1.10;100.00
59825;BME280;45703;50.898;6.054;2024-03-08T03:19:40;99987.22;;;1.15;100.00
59825;BME280;45703;50.898;6.054;2024-03-08T03:22:07;99982.63;;;1.17;100.00
59825;BME280;45703;50.898;6.054;2024-03-08T03:24:34;99978.34;;;1.16;100.00
59825;BME280;45703;50.898;6.054;2024-03-08T03:27:03;99979.66;;;1.12;100.00
59825;BME280;45703;50.898;6.054;2024-03-08T03:29:42;99975.91;;;1.15;100.00
59825;BME280;45703;50.898;6.054;2024-03-08T03:32:14;99981.50;;;1.12;100.00
59825;BME280;45703;50.898;6.054;2024-03-08T03:34:40;99975.75;;;1.08;100.00
59825;BME280;45703;50.898;6.054;2024-03-08T03:37:06;99972.47;;;1.06;100.00
59825;BME280;45703;50.898;6.054;2024-03-08T03:39:37;99977.06;;;1.04;100.00
59825;BME280;45703;50.898;6.054;2024-03-08T03:42:14;99970.34;;;0.94;100.00
59825;BME280;45703;50.898;6.054;2024-03-08T03:44:40;99970.16;;;1.03;100.00
59825;BME280;45703;50.898;6.054;2024-03-08T03:47:05;99970.47;;;1.08;100.00
59825;BME280;45703;50.898;6.054;2024-03-08T03:49:32;99966.06;;;1.09;100.00
59825;BME280;45703;50.898;6.054;2024-03-08T03:51:58;99960.63;;;1.10;100.00
59825;BME280;45703;50.898;6.054;2024-03-08T03:54:23;99965.72;;;1.12;100.00
59825;BME280;45703;50.898;6.054;2024-03-08T03:56:49;99962.44;;;1.10;100.00
59825;BME280;45703;50.898;6.054;2024-03-08T03:59:18;99968.34;;;1.12;100.00
59825;BME280;45703;50.898;6.054;2024-03-08T04:01:43;99966.03;;;1.17;100.00
59825;BME280;45703;50.898;6.054;2024-03-08T04:04:09;99962.88;;;1.21;100.00
59825;BME280;45703;50.898;6.054;2024-03-08T04:06:34;99961.09;;;1.22;100.00
59825;BME280;45703;50.898;6.054;2024-03-08T04:09:00;99948.28;;;1.19;100.00
59825;BME280;45703;50.898;6.054;2024-03-08T04:11:25;99956.94;;;1.27;100.00
59825;BME280;45703;50.898;6.054;2024-03-08T04:13:50;99953.66;;;1.25;100.00
59825;BME280;45703;50.898;6.054;2024-03-08T04:16:17;99951.38;;;1.30;100.00
59825;BME280;45703;50.898;6.054;2024-03-08T04:18:44;99942.31;;;1.33;100.00
59825;BME280;45703;50.898;6.054;2024-03-08T04:21:09;99944.00;;;1.26;100.00
59825;BME280;45703;50.898;6.054;2024-03-08T04:23:35;99936.25;;;1.24;100.00
59825;BME280;45703;50.898;6.054;2024-03-08T04:26:02;99935.59;;;1.22;100.00
59825;BME280;45703;50.898;6.054;2024-03-08T04:28:28;99934.63;;;1.23;100.00
59825;BME280;45703;50.898;6.054;2024-03-08T04:30:54;99929.00;;;1.26;100.00
59825;BME280;45703;50.898;6.054;2024-03-08T04:33:19;99932.63;;;1.25;100.00
59825;BME280;45703;50.898;6.054;2024-03-08T04:35:46;99926.91;;;1.22;100.00
59825;BME280;45703;50.898;6.054;2024-03-08T04:38:12;99928.72;;;1.21;100.00
59825;BME280;45703;50.898;6.054;2024-03-08T04:40:38;99917.88;;;1.16;100.00
59825;BME280;45703;50.898;6.054;2024-03-08T04:43:03;99921.50;;;1.15;100.00
59825;BME280;45703;50.898;6.054;2024-03-08T04:45:29;99917.88;;;1.16;100.00
59825;BME280;45703;50.898;6.054;2024-03-08T04:47:54;99918.03;;;1.23;100.00
59825;BME280;45703;50.898;6.054;2024-03-08T04:50:20;99915.22;;;1.24;100.00
59825;BME280;45703;50.898;6.054;2024-03-08T04:52:45;99911.59;;;1.25;100.00
59825;BME280;45703;50.898;6.054;2024-03-08T04:55:11;99906.50;;;1.32;100.00
59825;BME280;45703;50.898;6.054;2024-03-08T04:57:37;99908.97;;;1.33;100.00
59825;BME280;45703;50.898;6.054;2024-03-08T05:00:03;99901.44;;;1.30;100.00
59825;BME280;45703;50.898;6.054;2024-03-08T05:02:35;99902.06;;;1.32;100.00
59825;BME280;45703;50.898;6.054;2024-03-08T05:05:01;99893.84;;;1.27;100.00
59825;BME280;45703;50.898;6.054;2024-03-08T05:07:27;99888.59;;;1.27;100.00
59825;BME280;45703;50.898;6.054;2024-03-08T05:09:52;99891.41;;;1.26;100.00
59825;BME280;45703;50.898;6.054;2024-03-08T05:12:18;99885.50;;;1.24;100.00
59825;BME280;45703;50.898;6.054;2024-03-08T05:14:45;99878.41;;;1.32;100.00
59825;BME280;45703;50.898;6.054;2024-03-08T05:17:14;99874.28;;;1.30;100.00
59825;BME280;45703;50.898;6.054;2024-03-08T05:19:40;99877.41;;;1.33;100.00
59825;BME280;45703;50.898;6.054;2024-03-08T05:22:05;99875.44;;;1.35;100.00
59825;BME280;45703;50.898;6.054;2024-03-08T05:24:31;99878.53;;;1.38;100.00
59825;BME280;45703;50.898;6.054;2024-03-08T05:26:56;99872.63;;;1.37;100.00
59825;BME280;45703;50.898;6.054;2024-03-08T05:29:25;99877.22;;;1.35;100.00
59825;BME280;45703;50.898;6.054;2024-03-08T05:31:52;99879.06;;;1.34;100.00
59825;BME280;45703;50.898;6.054;2024-03-08T05:34:18;99875.59;;;1.34;100.00
59825;BME280;45703;50.898;6.054;2024-03-08T05:36:53;99880.69;;;1.35;100.00
59825;BME280;45703;50.898;6.054;2024-03-08T05:39:20;99874.59;;;1.35;100.00
59825;BME280;45703;50.898;6.054;2024-03-08T05:41:45;99871.16;;;1.34;100.00
59825;BME280;45703;50.898;6.054;2024-03-08T05:44:11;99859.66;;;1.35;100.00
59825;BME280;45703;50.898;6.054;2024-03-08T05:46:37;99873.78;;;1.34;100.00
59825;BME280;45703;50.898;6.054;2024-03-08T05:49:04;99868.53;;;1.34;100.00
59825;BME280;45703;50.898;6.054;2024-03-08T05:51:36;99870.69;;;1.31;100.00
59825;BME280;45703;50.898;6.054;2024-03-08T05:54:05;99860.16;;;1.31;100.00
59825;BME280;45703;50.898;6.054;2024-03-08T05:56:32;99865.25;;;1.32;100.00
59825;BME280;45703;50.898;6.054;2024-03-08T05:58:57;99853.91;;;1.32;100.00
59825;BME280;45703;50.898;6.054;2024-03-08T06:01:24;99858.53;;;1.30;100.00
59825;BME280;45703;50.898;6.054;2024-03-08T06:03:50;99862.97;;;1.29;100.00
59825;BME280;45703;50.898;6.054;2024-03-08T06:06:15;99853.09;;;1.31;100.00
59825;BME280;45703;50.898;6.054;2024-03-08T06:08:41;99858.38;;;1.31;100.00
59825;BME280;45703;50.898;6.054;2024-03-08T06:11:09;99854.75;;;1.32;100.00
59825;BME280;45703;50.898;6.054;2024-03-08T06:13:35;99848.16;;;1.36;100.00
59825;BME280;45703;50.898;6.054;2024-03-08T06:16:01;99841.91;;;1.37;100.00
59825;BME280;45703;50.898;6.054;2024-03-08T06:18:36;99844.22;;;1.32;100.00
59825;BME280;45703;50.898;6.054;2024-03-08T06:21:05;99837.28;;;1.39;100.00
59825;BME280;45703;50.898;6.054;2024-03-08T06:23:35;99839.56;;;1.42;100.00
59825;BME280;45703;50.898;6.054;2024-03-08T06:26:06;99835.75;;;1.44;100.00
59825;BME280;45703;50.898;6.054;2024-03-08T06:31:22;99836.53;;;1.53;100.00
59825;BME280;45703;50.898;6.054;2024-03-08T06:33:48;99826.03;;;1.53;100.00
59825;BME280;45703;50.898;6.054;2024-03-08T06:36:16;99832.56;;;1.57;100.00
59825;BME280;45703;50.898;6.054;2024-03-08T06:38:45;99832.22;;;1.60;100.00
59825;BME280;45703;50.898;6.054;2024-03-08T06:41:11;99823.69;;;1.58;100.00
59825;BME280;45703;50.898;6.054;2024-03-08T06:43:46;99823.34;;;1.61;100.00
59825;BME280;45703;50.898;6.054;2024-03-08T06:46:14;99823.19;;;1.62;100.00
59825;BME280;45703;50.898;6.054;2024-03-08T06:48:40;99822.97;;;1.64;100.00
59825;BME280;45703;50.898;6.054;2024-03-08T06:51:05;99819.00;;;1.68;100.00
59825;BME280;45703;50.898;6.054;2024-03-08T06:53:31;99813.41;;;1.71;100.00
59825;BME280;45703;50.898;6.054;2024-03-08T06:55:58;99816.66;;;1.73;100.00
59825;BME280;45703;50.898;6.054;2024-03-08T06:58:23;99816.31;;;1.76;100.00
59825;BME280;45703;50.898;6.054;2024-03-08T07:00:49;99819.44;;;1.79;100.00
59825;BME280;45703;50.898;6.054;2024-03-08T07:03:17;99822.47;;;1.91;100.00
59825;BME280;45703;50.898;6.054;2024-03-08T07:05:43;99823.75;;;1.95;100.00
59825;BME280;45703;50.898;6.054;2024-03-08T07:08:09;99824.41;;;1.97;100.00
59825;BME280;45703;50.898;6.054;2024-03-08T07:10:34;99822.53;;;2.05;100.00
59825;BME280;45703;50.898;6.054;2024-03-08T07:13:02;99828.88;;;2.11;100.00
59825;BME280;45703;50.898;6.054;2024-03-08T07:15:28;99821.19;;;2.24;100.00
59825;BME280;45703;50.898;6.054;2024-03-08T07:17:54;99823.03;;;2.23;100.00
59825;BME280;45703;50.898;6.054;2024-03-08T07:20:20;99819.16;;;2.34;100.00
59825;BME280;45703;50.898;6.054;2024-03-08T07:22:47;99815.78;;;2.40;100.00
59825;BME280;45703;50.898;6.054;2024-03-08T07:25:13;99809.81;;;2.46;100.00
59825;BME280;45703;50.898;6.054;2024-03-08T07:27:55;99812.72;;;2.51;100.00
59825;BME280;45703;50.898;6.054;2024-03-08T07:30:25;99803.72;;;2.60;100.00
59825;BME280;45703;50.898;6.054;2024-03-08T07:33:09;99798.34;;;2.68;100.00
59825;BME280;45703;50.898;6.054;2024-03-08T07:35:38;99796.63;;;2.75;100.00
59825;BME280;45703;50.898;6.054;2024-03-08T07:38:04;99793.72;;;2.84;100.00
59825;BME280;45703;50.898;6.054;2024-03-08T07:40:31;99793.47;;;2.93;100.00
59825;BME280;45703;50.898;6.054;2024-03-08T07:42:56;99779.91;;;2.96;100.00
59825;BME280;45703;50.898;6.054;2024-03-08T07:45:23;99774.53;;;3.04;100.00
59825;BME280;45703;50.898;6.054;2024-03-08T07:47:48;99778.69;;;3.13;100.00
59825;BME280;45703;50.898;6.054;2024-03-08T07:50:14;99774.50;;;3.19;100.00
59825;BME280;45703;50.898;6.054;2024-03-08T07:52:41;99781.47;;;3.26;100.00
59825;BME280;45703;50.898;6.054;2024-03-08T07:55:07;99767.56;;;3.32;100.00
59825;BME280;45703;50.898;6.054;2024-03-08T07:57:33;99770.34;;;3.45;100.00
59825;BME280;45703;50.898;6.054;2024-03-08T07:59:58;99768.13;;;3.49;100.00
59825;BME280;45703;50.898;6.054;2024-03-08T08:02:24;99761.09;;;3.56;100.00
59825;BME280;45703;50.898;6.054;2024-03-08T08:04:49;99757.72;;;3.62;100.00
59825;BME280;45703;50.898;6.054;2024-03-08T08:07:15;99760.41;;;3.68;100.00
59825;BME280;45703;50.898;6.054;2024-03-08T08:09:41;99753.88;;;3.85;100.00
59825;BME280;45703;50.898;6.054;2024-03-08T08:12:08;99754.50;;;3.87;100.00
59825;BME280;45703;50.898;6.054;2024-03-08T08:14:37;99755.16;;;3.96;100.00
59825;BME280;45703;50.898;6.054;2024-03-08T08:17:03;99747.88;;;3.98;100.00
59825;BME280;45703;50.898;6.054;2024-03-08T08:19:29;99750.56;;;4.04;100.00
59825;BME280;45703;50.898;6.054;2024-03-08T08:21:54;99739.06;;;4.12;100.00
59825;BME280;45703;50.898;6.054;2024-03-08T08:24:21;99741.75;;;4.18;100.00
59825;BME280;45703;50.898;6.054;2024-03-08T08:26:47;99726.75;;;4.25;100.00
59825;BME280;45703;50.898;6.054;2024-03-08T08:29:12;99740.81;;;4.32;100.00
59825;BME280;45703;50.898;6.054;2024-03-08T08:31:38;99734.16;;;4.36;100.00
59825;BME280;45703;50.898;6.054;2024-03-08T08:34:03;99731.53;;;4.42;100.00
59825;BME280;45703;50.898;6.054;2024-03-08T08:36:28;99726.94;;;4.51;100.00
59825;BME280;45703;50.898;6.054;2024-03-08T08:38:55;99728.78;;;4.57;100.00
59825;BME280;45703;50.898;6.054;2024-03-08T08:41:21;99717.03;;;4.66;100.00
59825;BME280;45703;50.898;6.054;2024-03-08T08:43:48;99711.56;;;4.74;100.00
59825;BME280;45703;50.898;6.054;2024-03-08T08:46:17;99706.13;;;4.82;100.00
59825;BME280;45703;50.898;6.054;2024-03-08T08:48:42;99704.53;;;4.87;100.00
59825;BME280;45703;50.898;6.054;2024-03-08T08:51:13;99709.44;;;4.97;100.00
59825;BME280;45703;50.898;6.054;2024-03-08T08:53:42;99704.56;;;5.00;100.00
59825;BME280;45703;50.898;6.054;2024-03-08T08:56:15;99700.72;;;5.09;100.00
59825;BME280;45703;50.898;6.054;2024-03-08T08:58:44;99711.56;;;5.21;100.00
59825;BME280;45703;50.898;6.054;2024-03-08T09:01:10;99707.09;;;5.28;100.00
59825;BME280;45703;50.898;6.054;2024-03-08T09:03:36;99694.91;;;5.33;100.00
59825;BME280;45703;50.898;6.054;2024-03-08T09:06:03;99691.25;;;5.41;100.00
59825;BME280;45703;50.898;6.054;2024-03-08T09:08:29;99696.53;;;5.47;100.00
59825;BME280;45703;50.898;6.054;2024-03-08T09:10:55;99694.72;;;5.54;100.00
59825;BME280;45703;50.898;6.054;2024-03-08T09:13:21;99684.75;;;5.63;100.00
59825;BME280;45703;50.898;6.054;2024-03-08T09:15:46;99684.75;;;5.69;100.00
59825;BME280;45703;50.898;6.054;2024-03-08T09:18:11;99677.03;;;5.74;100.00
59825;BME280;45703;50.898;6.054;2024-03-08T09:20:37;99682.56;;;5.79;100.00
59825;BME280;45703;50.898;6.054;2024-03-08T09:23:03;99667.28;;;5.81;100.00
59825;BME280;45703;50.898;6.054;2024-03-08T09:25:29;99664.41;;;5.89;100.00
59825;BME280;45703;50.898;6.054;2024-03-08T09:27:55;99666.66;;;5.98;100.00
59825;BME280;45703;50.898;6.054;2024-03-08T09:30:20;99656.25;;;6.03;100.00
59825;BME280;45703;50.898;6.054;2024-03-08T09:32:47;99651.16;;;6.08;100.00
59825;BME280;45703;50.898;6.054;2024-03-08T09:35:12;99657.25;;;6.15;100.00
59825;BME280;45703;50.898;6.054;2024-03-08T09:37:38;99652.75;;;6.22;100.00
59825;BME280;45703;50.898;6.054;2024-03-08T09:40:04;99650.47;;;6.32;100.00
59825;BME280;45703;50.898;6.054;2024-03-08T09:42:35;99648.22;;;6.42;100.00
59825;BME280;45703;50.898;6.054;2024-03-08T09:45:06;99639.44;;;6.48;100.00
59825;BME280;45703;50.898;6.054;2024-03-08T09:47:57;99633.88;;;6.56;100.00
59825;BME280;45703;50.898;6.054;2024-03-08T09:50:23;99625.88;;;6.63;100.00
59825;BME280;45703;50.898;6.054;2024-03-08T09:52:49;99632.00;;;6.70;100.00
59825;BME280;45703;50.898;6.054;2024-03-08T09:55:16;99633.19;;;6.74;100.00
59825;BME280;45703;50.898;6.054;2024-03-08T09:57:43;99628.84;;;6.86;100.00
59825;BME280;45703;50.898;6.054;2024-03-08T10:00:29;99628.59;;;6.94;100.00
59825;BME280;45703;50.898;6.054;2024-03-08T10:02:54;99619.34;;;7.03;100.00
59825;BME280;45703;50.898;6.054;2024-03-08T10:05:25;99615.66;;;7.10;100.00
59825;BME280;45703;50.898;6.054;2024-03-08T10:07:50;99609.28;;;7.17;100.00
59825;BME280;45703;50.898;6.054;2024-03-08T10:10:16;99613.50;;;7.25;100.00
59825;BME280;45703;50.898;6.054;2024-03-08T10:12:41;99608.34;;;7.30;100.00
59825;BME280;45703;50.898;6.054;2024-03-08T10:15:08;99619.72;;;7.37;100.00
59825;BME280;45703;50.898;6.054;2024-03-08T10:17:37;99598.44;;;7.43;100.00
59825;BME280;45703;50.898;6.054;2024-03-08T10:20:02;99603.91;;;7.48;100.00
59825;BME280;45703;50.898;6.054;2024-03-08T10:22:30;99606.53;;;7.55;100.00
59825;BME280;45703;50.898;6.054;2024-03-08T10:24:56;99592.38;;;7.61;100.00
59825;BME280;45703;50.898;6.054;2024-03-08T10:27:22;99589.28;;;7.64;100.00
59825;BME280;45703;50.898;6.054;2024-03-08T10:29:48;99587.22;;;7.66;100.00
59825;BME280;45703;50.898;6.054;2024-03-08T10:32:13;99576.56;;;7.72;100.00
59825;BME280;45703;50.898;6.054;2024-03-08T10:34:39;99569.09;;;7.81;100.00
59825;BME280;45703;50.898;6.054;2024-03-08T10:37:07;99576.38;;;7.92;100.00
59825;BME280;45703;50.898;6.054;2024-03-08T10:39:36;99564.03;;;7.97;100.00
59825;BME280;45703;50.898;6.054;2024-03-08T10:42:05;99568.84;;;8.07;100.00
59825;BME280;45703;50.898;6.054;2024-03-08T10:44:53;99559.38;;;8.11;100.00
59825;BME280;45703;50.898;6.054;2024-03-08T10:47:30;99561.78;;;8.19;100.00
59825;BME280;45703;50.898;6.054;2024-03-08T10:50:17;99556.75;;;8.29;100.00
59825;BME280;45703;50.898;6.054;2024-03-08T10:52:49;99546.84;;;8.36;100.00
59825;BME280;45703;50.898;6.054;2024-03-08T10:55:15;99542.69;;;8.40;100.00
59825;BME280;45703;50.898;6.054;2024-03-08T10:57:42;99535.69;;;8.45;100.00
59825;BME280;45703;50.898;6.054;2024-03-08T11:00:08;99533.53;;;8.54;100.00
59825;BME280;45703;50.898;6.054;2024-03-08T11:02:36;99524.06;;;8.57;100.00
59825;BME280;45703;50.898;6.054;2024-03-08T11:05:04;99530.09;;;8.64;100.00
59825;BME280;45703;50.898;6.054;2024-03-08T11:07:34;99535.09;;;8.72;100.00
59825;BME280;45703;50.898;6.054;2024-03-08T11:10:03;99526.19;;;8.78;100.00
59825;BME280;45703;50.898;6.054;2024-03-08T11:12:37;99522.88;;;8.83;100.00
59825;BME280;45703;50.898;6.054;2024-03-08T11:15:10;99513.03;;;8.83;100.00
59825;BME280;45703;50.898;6.054;2024-03-08T11:20:24;99510.66;;;8.93;100.00
59825;BME280;45703;50.898;6.054;2024-03-08T11:22:54;99505.75;;;8.90;100.00
59825;BME280;45703;50.898;6.054;2024-03-08T11:31:14;99502.91;;;9.03;100.00
59825;BME280;45703;50.898;6.054;2024-03-08T11:33:35;99490.38;;;9.04;100.00
59825;BME280;45703;50.898;6.054;2024-03-08T11:38:46;99479.84;;;9.09;100.00
59825;BME280;45703;50.898;6.054;2024-03-08T11:41:18;99477.56;;;9.12;100.00
59825;BME280;45703;50.898;6.054;2024-03-08T11:43:48;99476.06;;;9.16;100.00
59825;BME280;45703;50.898;6.054;2024-03-08T11:46:15;99480.47;;;9.22;100.00
59825;BME280;45703;50.898;6.054;2024-03-08T11:48:42;99482.19;;;9.28;100.00
59825;BME280;45703;50.898;6.054;2024-03-08T11:51:10;99467.94;;;9.34;100.00
59825;BME280;45703;50.898;6.054;2024-03-08T11:53:37;99475.25;;;9.39;100.00
59825;BME280;45703;50.898;6.054;2024-03-08T11:56:10;99473.53;;;9.44;100.00
59825;BME280;45703;50.898;6.054;2024-03-08T11:58:36;99468.53;;;9.48;100.00
59825;BME280;45703;50.898;6.054;2024-03-08T12:01:06;99455.22;;;9.48;100.00
59825;BME280;45703;50.898;6.054;2024-03-08T12:03:32;99454.16;;;9.49;100.00
59825;BME280;45703;50.898;6.054;2024-03-08T12:06:01;99460.66;;;9.53;100.00
59825;BME280;45703;50.898;6.054;2024-03-08T12:08:30;99458.91;;;9.58;100.00
59825;BME280;45703;50.898;6.054;2024-03-08T12:10:55;99456.84;;;9.60;100.00
59825;BME280;45703;50.898;6.054;2024-03-08T12:13:32;99439.09;;;9.66;100.00
59825;BME280;45703;50.898;6.054;2024-03-08T12:16:00;99436.28;;;9.72;100.00
59825;BME280;45703;50.898;6.054;2024-03-08T12:18:26;99447.41;;;9.81;100.00
59825;BME280;45703;50.898;6.054;2024-03-08T12:21:13;99441.84;;;9.82;100.00
59825;BME280;45703;50.898;6.054;2024-03-08T12:23:43;99446.69;;;9.85;100.00
59825;BME280;45703;50.898;6.054;2024-03-08T12:28:40;99431.63;;;9.91;100.00
59825;BME280;45703;50.898;6.054;2024-03-08T12:31:07;99418.16;;;9.97;100.00
59825;BME280;45703;50.898;6.054;2024-03-08T12:33:54;99429.28;;;10.05;100.00
59825;BME280;45703;50.898;6.054;2024-03-08T12:36:21;99425.91;;;10.10;100.00
59825;BME280;45703;50.898;6.054;2024-03-08T12:38:47;99417.66;;;10.11;100.00
59825;BME280;45703;50.898;6.054;2024-03-08T12:41:19;99411.38;;;10.17;100.00
59825;BME280;45703;50.898;6.054;2024-03-08T12:43:45;99408.00;;;10.22;100.00
59825;BME280;45703;50.898;6.054;2024-03-08T12:46:17;99408.34;;;10.25;100.00
59825;BME280;45703;50.898;6.054;2024-03-08T12:48:43;99399.28;;;10.26;100.00
59825;BME280;45703;50.898;6.054;2024-03-08T12:51:15;99392.09;;;10.27;100.00
59825;BME280;45703;50.898;6.054;2024-03-08T12:53:45;99390.81;;;10.29;99.86
59825;BME280;45703;50.898;6.054;2024-03-08T12:56:19;99385.69;;;10.28;100.00
59825;BME280;45703;50.898;6.054;2024-03-08T12:58:53;99373.97;;;10.29;100.00
59825;BME280;45703;50.898;6.054;2024-03-08T13:01:19;99368.66;;;10.29;100.00
59825;BME280;45703;50.898;6.054;2024-03-08T13:03:44;99366.56;;;10.31;100.00
59825;BME280;45703;50.898;6.054;2024-03-08T13:06:09;99365.84;;;10.35;100.00
59825;BME280;45703;50.898;6.054;2024-03-08T13:08:36;99364.06;;;10.41;100.00
59825;BME280;45703;50.898;6.054;2024-03-08T13:11:04;99360.66;;;10.45;100.00
59825;BME280;45703;50.898;6.054;2024-03-08T13:13:30;99352.19;;;10.48;100.00
59825;BME280;45703;50.898;6.054;2024-03-08T13:15:55;99335.47;;;10.53;100.00